sensor_id;sensor_type;location;lat;lon;timestamp;P1;durP1;ratioP1;P2;durP2;ratioP2
10041;SDS011;5061;49.068;12.058;2022-11-23T00:04:55;20.33;;;9.97;;
10041;SDS011;5061;49.068;12.058;2022-11-23T00:08:15;21.37;;;10.70;;
10041;SDS011;5061;49.068;12.058;2022-11-23T00:11:36;26.17;;;11.47;;
10041;SDS011;5061;49.068;12.058;2022-11-23T00:14:57;25.83;;;12.63;;
10041;SDS011;5061;49.068;12.058;2022-11-23T00:18:17;25.10;;;12.17;;
10041;SDS011;5061;49.068;12.058;2022-11-23T00:21:38;21.43;;;11.50;;
10041;SDS011;5061;49.068;12.058;2022-11-23T00:24:59;20.53;;;10.63;;
10041;SDS011;5061;49.068;12.058;2022-11-23T00:28:19;22.67;;;10.57;;
10041;SDS011;5061;49.068;12.058;2022-11-23T00:31:40;20.70;;;10.90;;
10041;SDS011;5061;49.068;12.058;2022-11-23T00:35:00;16.80;;;8.97;;
10041;SDS011;5061;49.068;12.058;2022-11-23T00:38:21;18.43;;;10.27;;
10041;SDS011;5061;49.068;12.058;2022-11-23T00:41:42;16.43;;;10.03;;
10041;SDS011;5061;49.068;12.058;2022-11-23T00:45:02;20.73;;;10.53;;
10041;SDS011;5061;49.068;12.058;2022-11-23T00:48:23;17.57;;;9.77;;
10041;SDS011;5061;49.068;12.058;2022-11-23T00:51:44;18.30;;;10.80;;
10041;SDS011;5061;49.068;12.058;2022-11-23T00:55:04;19.40;;;11.60;;
10041;SDS011;5061;49.068;12.058;2022-11-23T00:58:25;18.40;;;11.10;;
10041;SDS011;5061;49.068;12.058;2022-11-23T01:01:47;21.93;;;11.20;;
10041;SDS011;5061;49.068;12.058;2022-11-23T01:05:08;16.60;;;8.30;;
10041;SDS011;5061;49.068;12.058;2022-11-23T01:08:29;17.40;;;9.03;;
10041;SDS011;5061;49.068;12.058;2022-11-23T01:11:51;15.40;;;8.63;;
10041;SDS011;5061;49.068;12.058;2022-11-23T01:15:13;14.13;;;8.83;;
10041;SDS011;5061;49.068;12.058;2022-11-23T01:18:33;18.97;;;10.70;;
10041;SDS011;5061;49.068;12.058;2022-11-23T01:21:54;24.70;;;11.17;;
10041;SDS011;5061;49.068;12.058;2022-11-23T01:25:14;23.90;;;11.80;;
10041;SDS011;5061;49.068;12.058;2022-11-23T01:28:36;14.43;;;9.37;;
10041;SDS011;5061;49.068;12.058;2022-11-23T01:31:58;19.63;;;10.63;;
10041;SDS011;5061;49.068;12.058;2022-11-23T01:35:18;12.40;;;8.47;;
10041;SDS011;5061;49.068;12.058;2022-11-23T01:38:40;20.60;;;11.40;;
10041;SDS011;5061;49.068;12.058;2022-11-23T01:42:01;19.73;;;10.70;;
10041;SDS011;5061;49.068;12.058;2022-11-23T01:48:59;20.20;;;11.07;;
10041;SDS011;5061;49.068;12.058;2022-11-23T01:52:22;21.67;;;12.40;;
10041;SDS011;5061;49.068;12.058;2022-11-23T01:55:45;20.80;;;11.00;;
10041;SDS011;5061;49.068;12.058;2022-11-23T01:59:08;16.43;;;9.17;;
10041;SDS011;5061;49.068;12.058;2022-11-23T02:02:34;16.53;;;9.10;;
10041;SDS011;5061;49.068;12.058;2022-11-23T02:06:00;18.27;;;10.07;;
10041;SDS011;5061;49.068;12.058;2022-11-23T02:09:22;14.50;;;9.37;;
10041;SDS011;5061;49.068;12.058;2022-11-23T02:12:43;14.97;;;9.30;;
10041;SDS011;5061;49.068;12.058;2022-11-23T02:16:04;20.57;;;11.63;;
10041;SDS011;5061;49.068;12.058;2022-11-23T02:26:52;13.27;;;7.93;;
10041;SDS011;5061;49.068;12.058;2022-11-23T02:30:13;9.53;;;7.20;;
10041;SDS011;5061;49.068;12.058;2022-11-23T02:33:37;17.10;;;9.90;;
10041;SDS011;5061;49.068;12.058;2022-11-23T02:36:58;13.40;;;7.77;;
10041;SDS011;5061;49.068;12.058;2022-11-23T02:40:24;14.63;;;9.50;;
10041;SDS011;5061;49.068;12.058;2022-11-23T02:43:47;12.27;;;7.53;;
10041;SDS011;5061;49.068;12.058;2022-11-23T02:47:13;13.93;;;9.23;;
10041;SDS011;5061;49.068;12.058;2022-11-23T02:50:34;10.40;;;7.67;;
10041;SDS011;5061;49.068;12.058;2022-11-23T02:53:55;17.73;;;9.33;;
10041;SDS011;5061;49.068;12.058;2022-11-23T02:57:15;12.13;;;7.27;;
10041;SDS011;5061;49.068;12.058;2022-11-23T03:00:36;9.37;;;5.70;;
10041;SDS011;5061;49.068;12.058;2022-11-23T03:03:56;10.80;;;7.10;;
10041;SDS011;5061;49.068;12.058;2022-11-23T03:07:17;12.53;;;8.40;;
10041;SDS011;5061;49.068;12.058;2022-11-23T03:10:38;11.07;;;7.80;;
10041;SDS011;5061;49.068;12.058;2022-11-23T03:13:58;9.20;;;5.27;;
10041;SDS011;5061;49.068;12.058;2022-11-23T03:17:19;8.70;;;5.80;;
10041;SDS011;5061;49.068;12.058;2022-11-23T03:20:40;11.03;;;7.90;;
10041;SDS011;5061;49.068;12.058;2022-11-23T03:24:00;12.60;;;7.67;;
10041;SDS011;5061;49.068;12.058;2022-11-23T03:27:21;10.90;;;7.00;;
10041;SDS011;5061;49.068;12.058;2022-11-23T03:30:42;16.13;;;9.30;;
10041;SDS011;5061;49.068;12.058;2022-11-23T03:34:02;17.27;;;9.27;;
10041;SDS011;5061;49.068;12.058;2022-11-23T03:37:23;18.30;;;10.67;;
10041;SDS011;5061;49.068;12.058;2022-11-23T03:40:44;14.43;;;8.87;;
10041;SDS011;5061;49.068;12.058;2022-11-23T03:44:05;15.90;;;8.70;;
10041;SDS011;5061;49.068;12.058;2022-11-23T03:47:25;15.17;;;8.60;;
10041;SDS011;5061;49.068;12.058;2022-11-23T03:50:46;13.83;;;9.17;;
10041;SDS011;5061;49.068;12.058;2022-11-23T03:54:07;15.50;;;9.33;;
10041;SDS011;5061;49.068;12.058;2022-11-23T03:57:27;15.60;;;9.57;;
10041;SDS011;5061;49.068;12.058;2022-11-23T04:00:48;18.07;;;9.67;;
10041;SDS011;5061;49.068;12.058;2022-11-23T04:04:09;19.43;;;10.03;;
10041;SDS011;5061;49.068;12.058;2022-11-23T04:07:29;17.00;;;10.33;;
10041;SDS011;5061;49.068;12.058;2022-11-23T04:10:50;16.23;;;9.67;;
10041;SDS011;5061;49.068;12.058;2022-11-23T04:14:10;17.23;;;9.97;;
10041;SDS011;5061;49.068;12.058;2022-11-23T04:17:31;14.67;;;9.30;;
10041;SDS011;5061;49.068;12.058;2022-11-23T04:20:52;14.73;;;8.80;;
10041;SDS011;5061;49.068;12.058;2022-11-23T04:24:12;15.63;;;10.07;;
10041;SDS011;5061;49.068;12.058;2022-11-23T04:27:33;18.17;;;10.53;;
10041;SDS011;5061;49.068;12.058;2022-11-23T04:30:53;17.73;;;10.70;;
10041;SDS011;5061;49.068;12.058;2022-11-23T04:34:14;16.70;;;9.10;;
10041;SDS011;5061;49.068;12.058;2022-11-23T04:37:35;11.33;;;7.27;;
10041;SDS011;5061;49.068;12.058;2022-11-23T04:40:55;15.47;;;8.87;;
10041;SDS011;5061;49.068;12.058;2022-11-23T04:44:16;12.10;;;8.10;;
10041;SDS011;5061;49.068;12.058;2022-11-23T04:47:36;10.20;;;6.83;;
10041;SDS011;5061;49.068;12.058;2022-11-23T04:50:57;14.93;;;8.70;;
10041;SDS011;5061;49.068;12.058;2022-11-23T04:54:18;12.23;;;7.70;;
10041;SDS011;5061;49.068;12.058;2022-11-23T04:57:39;12.07;;;7.77;;
10041;SDS011;5061;49.068;12.058;2022-11-23T05:01:00;7.27;;;5.43;;
10041;SDS011;5061;49.068;12.058;2022-11-23T05:04:20;7.93;;;5.50;;
10041;SDS011;5061;49.068;12.058;2022-11-23T05:07:41;7.40;;;5.13;;
10041;SDS011;5061;49.068;12.058;2022-11-23T05:11:02;11.90;;;8.23;;
10041;SDS011;5061;49.068;12.058;2022-11-23T05:14:23;18.10;;;9.30;;
10041;SDS011;5061;49.068;12.058;2022-11-23T05:17:43;10.70;;;6.73;;
10041;SDS011;5061;49.068;12.058;2022-11-23T05:21:04;9.17;;;6.20;;
10041;SDS011;5061;49.068;12.058;2022-11-23T05:24:25;9.13;;;5.87;;
10041;SDS011;5061;49.068;12.058;2022-11-23T05:27:46;8.33;;;5.90;;
10041;SDS011;5061;49.068;12.058;2022-11-23T05:31:06;12.17;;;6.80;;
10041;SDS011;5061;49.068;12.058;2022-11-23T05:34:27;10.37;;;6.90;;
10041;SDS011;5061;49.068;12.058;2022-11-23T05:37:48;12.23;;;8.37;;
10041;SDS011;5061;49.068;12.058;2022-11-23T05:41:08;9.97;;;7.07;;
10041;SDS011;5061;49.068;12.058;2022-11-23T05:44:29;10.43;;;6.77;;
10041;SDS011;5061;49.068;12.058;2022-11-23T05:47:54;11.40;;;6.90;;
10041;SDS011;5061;49.068;12.058;2022-11-23T05:51:15;11.00;;;7.20;;
10041;SDS011;5061;49.068;12.058;2022-11-23T05:54:36;8.70;;;5.60;;
10041;SDS011;5061;49.068;12.058;2022-11-23T05:57:57;12.37;;;7.50;;
10041;SDS011;5061;49.068;12.058;2022-11-23T06:01:21;12.70;;;8.00;;
10041;SDS011;5061;49.068;12.058;2022-11-23T06:04:41;11.97;;;8.17;;
10041;SDS011;5061;49.068;12.058;2022-11-23T06:08:02;13.03;;;8.50;;
10041;SDS011;5061;49.068;12.058;2022-11-23T06:11:23;11.20;;;7.67;;
10041;SDS011;5061;49.068;12.058;2022-11-23T06:14:43;12.03;;;7.60;;
10041;SDS011;5061;49.068;12.058;2022-11-23T06:18:04;13.77;;;8.50;;
10041;SDS011;5061;49.068;12.058;2022-11-23T06:21:24;15.07;;;9.30;;
10041;SDS011;5061;49.068;12.058;2022-11-23T06:24:45;13.97;;;9.00;;
10041;SDS011;5061;49.068;12.058;2022-11-23T06:28:06;13.93;;;8.10;;
10041;SDS011;5061;49.068;12.058;2022-11-23T06:31:26;11.97;;;7.90;;
10041;SDS011;5061;49.068;12.058;2022-11-23T06:34:47;12.93;;;8.13;;
10041;SDS011;5061;49.068;12.058;2022-11-23T06:38:07;12.23;;;7.83;;
10041;SDS011;5061;49.068;12.058;2022-11-23T06:41:28;19.03;;;11.40;;
10041;SDS011;5061;49.068;12.058;2022-11-23T06:44:49;16.50;;;10.47;;
10041;SDS011;5061;49.068;12.058;2022-11-23T06:48:09;15.30;;;9.77;;
10041;SDS011;5061;49.068;12.058;2022-11-23T06:51:30;15.90;;;9.97;;
10041;SDS011;5061;49.068;12.058;2022-11-23T06:54:51;16.13;;;10.47;;
10041;SDS011;5061;49.068;12.058;2022-11-23T06:58:11;17.83;;;11.23;;
10041;SDS011;5061;49.068;12.058;2022-11-23T07:01:34;18.53;;;10.53;;
10041;SDS011;5061;49.068;12.058;2022-11-23T07:04:55;19.93;;;10.97;;
10041;SDS011;5061;49.068;12.058;2022-11-23T07:08:19;17.10;;;10.80;;
10041;SDS011;5061;49.068;12.058;2022-11-23T07:11:40;17.60;;;10.47;;
10041;SDS011;5061;49.068;12.058;2022-11-23T07:15:03;19.57;;;11.60;;
10041;SDS011;5061;49.068;12.058;2022-11-23T07:18:24;21.87;;;11.53;;
10041;SDS011;5061;49.068;12.058;2022-11-23T07:21:45;18.30;;;10.67;;
10041;SDS011;5061;49.068;12.058;2022-11-23T07:25:06;13.07;;;8.30;;
10041;SDS011;5061;49.068;12.058;2022-11-23T07:28:27;13.27;;;8.50;;
10041;SDS011;5061;49.068;12.058;2022-11-23T07:31:47;13.60;;;9.70;;
10041;SDS011;5061;49.068;12.058;2022-11-23T07:35:08;12.70;;;7.40;;
10041;SDS011;5061;49.068;12.058;2022-11-23T07:38:29;16.57;;;9.20;;
10041;SDS011;5061;49.068;12.058;2022-11-23T07:41:50;17.43;;;9.87;;
10041;SDS011;5061;49.068;12.058;2022-11-23T07:45:10;16.77;;;10.33;;
10041;SDS011;5061;49.068;12.058;2022-11-23T07:48:31;20.87;;;11.43;;
10041;SDS011;5061;49.068;12.058;2022-11-23T07:51:52;18.40;;;10.60;;
10041;SDS011;5061;49.068;12.058;2022-11-23T07:55:15;16.67;;;9.80;;
10041;SDS011;5061;49.068;12.058;2022-11-23T07:58:35;20.17;;;12.53;;
10041;SDS011;5061;49.068;12.058;2022-11-23T08:01:56;20.30;;;12.30;;
10041;SDS011;5061;49.068;12.058;2022-11-23T08:05:16;21.43;;;11.47;;
10041;SDS011;5061;49.068;12.058;2022-11-23T08:08:37;19.40;;;11.40;;
10041;SDS011;5061;49.068;12.058;2022-11-23T08:11:58;24.20;;;12.30;;
10041;SDS011;5061;49.068;12.058;2022-11-23T08:15:19;22.13;;;12.30;;
10041;SDS011;5061;49.068;12.058;2022-11-23T08:18:40;19.80;;;12.23;;
10041;SDS011;5061;49.068;12.058;2022-11-23T08:22:00;22.13;;;13.20;;
10041;SDS011;5061;49.068;12.058;2022-11-23T08:25:24;18.00;;;12.03;;
10041;SDS011;5061;49.068;12.058;2022-11-23T08:28:46;18.20;;;11.17;;
10041;SDS011;5061;49.068;12.058;2022-11-23T08:32:07;19.80;;;11.87;;
10041;SDS011;5061;49.068;12.058;2022-11-23T08:35:27;18.67;;;11.57;;
10041;SDS011;5061;49.068;12.058;2022-11-23T08:38:48;20.33;;;13.03;;
10041;SDS011;5061;49.068;12.058;2022-11-23T08:42:13;21.83;;;13.00;;
10041;SDS011;5061;49.068;12.058;2022-11-23T08:45:33;25.33;;;14.90;;
10041;SDS011;5061;49.068;12.058;2022-11-23T08:48:54;21.40;;;13.07;;
10041;SDS011;5061;49.068;12.058;2022-11-23T08:52:15;18.13;;;11.53;;
10041;SDS011;5061;49.068;12.058;2022-11-23T08:55:35;15.30;;;10.80;;
10041;SDS011;5061;49.068;12.058;2022-11-23T08:58:56;16.10;;;10.20;;
10041;SDS011;5061;49.068;12.058;2022-11-23T09:02:16;16.20;;;11.10;;
10041;SDS011;5061;49.068;12.058;2022-11-23T09:05:37;12.47;;;8.73;;
10041;SDS011;5061;49.068;12.058;2022-11-23T09:08:58;18.87;;;10.83;;
10041;SDS011;5061;49.068;12.058;2022-11-23T09:12:19;18.50;;;11.77;;
10041;SDS011;5061;49.068;12.058;2022-11-23T09:15:39;17.07;;;10.10;;
10041;SDS011;5061;49.068;12.058;2022-11-23T09:19:00;22.13;;;12.47;;
10041;SDS011;5061;49.068;12.058;2022-11-23T09:22:25;17.87;;;11.27;;
10041;SDS011;5061;49.068;12.058;2022-11-23T09:25:46;17.80;;;11.13;;
10041;SDS011;5061;49.068;12.058;2022-11-23T09:29:09;21.80;;;12.40;;
10041;SDS011;5061;49.068;12.058;2022-11-23T09:32:30;20.57;;;12.30;;
10041;SDS011;5061;49.068;12.058;2022-11-23T09:35:58;20.53;;;11.70;;
10041;SDS011;5061;49.068;12.058;2022-11-23T09:39:20;23.30;;;13.00;;
10041;SDS011;5061;49.068;12.058;2022-11-23T09:56:56;18.70;;;12.17;;
10041;SDS011;5061;49.068;12.058;2022-11-23T10:00:18;16.93;;;11.50;;
10041;SDS011;5061;49.068;12.058;2022-11-23T10:03:41;18.00;;;11.27;;
10041;SDS011;5061;49.068;12.058;2022-11-23T10:25:20;23.33;;;13.23;;
10041;SDS011;5061;49.068;12.058;2022-11-23T10:28:42;19.17;;;12.63;;
10041;SDS011;5061;49.068;12.058;2022-11-23T10:32:06;19.43;;;14.00;;
10041;SDS011;5061;49.068;12.058;2022-11-23T10:35:41;17.63;;;12.43;;
10041;SDS011;5061;49.068;12.058;2022-11-23T10:39:04;20.13;;;13.40;;
10041;SDS011;5061;49.068;12.058;2022-11-23T10:46:37;18.47;;;11.90;;
10041;SDS011;5061;49.068;12.058;2022-11-23T10:49:58;15.80;;;10.80;;
10041;SDS011;5061;49.068;12.058;2022-11-23T10:53:22;19.83;;;12.20;;
10041;SDS011;5061;49.068;12.058;2022-11-23T10:56:49;14.47;;;10.13;;
10041;SDS011;5061;49.068;12.058;2022-11-23T11:03:34;17.80;;;10.53;;
10041;SDS011;5061;49.068;12.058;2022-11-23T11:11:10;15.60;;;10.60;;
10041;SDS011;5061;49.068;12.058;2022-11-23T11:14:23;16.47;;;10.73;;
10041;SDS011;5061;49.068;12.058;2022-11-23T11:17:44;14.83;;;11.40;;
10041;SDS011;5061;49.068;12.058;2022-11-23T11:21:20;16.47;;;11.10;;
10041;SDS011;5061;49.068;12.058;2022-11-23T11:24:43;22.93;;;13.90;;
10041;SDS011;5061;49.068;12.058;2022-11-23T11:28:21;20.83;;;13.90;;
10041;SDS011;5061;49.068;12.058;2022-11-23T11:31:52;17.80;;;12.90;;
10041;SDS011;5061;49.068;12.058;2022-11-23T11:38:47;19.60;;;11.60;;
10041;SDS011;5061;49.068;12.058;2022-11-23T11:42:15;23.07;;;13.87;;
10041;SDS011;5061;49.068;12.058;2022-11-23T11:45:41;28.50;;;15.83;;
10041;SDS011;5061;49.068;12.058;2022-11-23T11:52:26;32.80;;;18.83;;
10041;SDS011;5061;49.068;12.058;2022-11-23T11:55:53;26.20;;;15.80;;
10041;SDS011;5061;49.068;12.058;2022-11-23T12:02:51;30.00;;;16.70;;
10041;SDS011;5061;49.068;12.058;2022-11-23T12:06:25;36.00;;;18.00;;
10041;SDS011;5061;49.068;12.058;2022-11-23T12:09:52;25.83;;;15.00;;
10041;SDS011;5061;49.068;12.058;2022-11-23T12:13:21;27.10;;;15.80;;
10041;SDS011;5061;49.068;12.058;2022-11-23T12:31:07;18.83;;;12.70;;
10041;SDS011;5061;49.068;12.058;2022-11-23T12:38:22;17.30;;;12.20;;
10041;SDS011;5061;49.068;12.058;2022-11-23T12:41:59;16.73;;;12.20;;
10041;SDS011;5061;49.068;12.058;2022-11-23T12:45:49;17.43;;;11.73;;
10041;SDS011;5061;49.068;12.058;2022-11-23T13:00:18;16.00;;;10.53;;
10041;SDS011;5061;49.068;12.058;2022-11-23T13:07:32;18.33;;;12.13;;
10041;SDS011;5061;49.068;12.058;2022-11-23T13:14:39;17.70;;;12.00;;
10041;SDS011;5061;49.068;12.058;2022-11-23T13:21:50;15.90;;;11.27;;
10041;SDS011;5061;49.068;12.058;2022-11-23T13:28:32;18.10;;;12.70;;
10041;SDS011;5061;49.068;12.058;2022-11-23T13:32:05;20.50;;;12.60;;
10041;SDS011;5061;49.068;12.058;2022-11-23T13:35:53;18.10;;;11.90;;
10041;SDS011;5061;49.068;12.058;2022-11-23T13:50:38;11.53;;;8.67;;
10041;SDS011;5061;49.068;12.058;2022-11-23T13:54:18;15.30;;;10.87;;
10041;SDS011;5061;49.068;12.058;2022-11-23T13:57:42;21.17;;;12.57;;
10041;SDS011;5061;49.068;12.058;2022-11-23T14:01:04;22.27;;;14.83;;
10041;SDS011;5061;49.068;12.058;2022-11-23T14:04:29;18.87;;;13.37;;
10041;SDS011;5061;49.068;12.058;2022-11-23T14:07:53;19.80;;;12.93;;
10041;SDS011;5061;49.068;12.058;2022-11-23T14:11:19;20.93;;;13.13;;
10041;SDS011;5061;49.068;12.058;2022-11-23T14:21:41;17.50;;;11.87;;
10041;SDS011;5061;49.068;12.058;2022-11-23T14:25:27;14.83;;;11.03;;
10041;SDS011;5061;49.068;12.058;2022-11-23T14:33:15;17.77;;;11.70;;
10041;SDS011;5061;49.068;12.058;2022-11-23T14:36:48;15.60;;;11.33;;
10041;SDS011;5061;49.068;12.058;2022-11-23T14:40:18;15.30;;;10.80;;
10041;SDS011;5061;49.068;12.058;2022-11-23T14:43:58;17.33;;;11.60;;
10041;SDS011;5061;49.068;12.058;2022-11-23T14:47:24;24.30;;;15.53;;
10041;SDS011;5061;49.068;12.058;2022-11-23T14:50:53;16.97;;;11.90;;
10041;SDS011;5061;49.068;12.058;2022-11-23T14:54:22;21.87;;;14.40;;
10041;SDS011;5061;49.068;12.058;2022-11-23T14:57:44;19.30;;;14.17;;
10041;SDS011;5061;49.068;12.058;2022-11-23T15:01:08;20.70;;;13.47;;
10041;SDS011;5061;49.068;12.058;2022-11-23T15:04:38;19.47;;;13.90;;
10041;SDS011;5061;49.068;12.058;2022-11-23T15:08:13;22.93;;;14.33;;
10041;SDS011;5061;49.068;12.058;2022-11-23T15:11:51;19.70;;;13.43;;
10041;SDS011;5061;49.068;12.058;2022-11-23T15:15:38;19.13;;;12.60;;
10041;SDS011;5061;49.068;12.058;2022-11-23T15:22:57;21.30;;;12.73;;
10041;SDS011;5061;49.068;12.058;2022-11-23T15:26:30;20.50;;;13.40;;
10041;SDS011;5061;49.068;12.058;2022-11-23T15:29:56;18.03;;;12.20;;
10041;SDS011;5061;49.068;12.058;2022-11-23T15:33:19;21.50;;;14.17;;
10041;SDS011;5061;49.068;12.058;2022-11-23T15:36:44;20.10;;;12.27;;
10041;SDS011;5061;49.068;12.058;2022-11-23T15:40:15;17.30;;;12.70;;
10041;SDS011;5061;49.068;12.058;2022-11-23T15:43:49;17.80;;;12.20;;
10041;SDS011;5061;49.068;12.058;2022-11-23T15:47:22;21.53;;;13.90;;
10041;SDS011;5061;49.068;12.058;2022-11-23T15:50:56;20.60;;;13.90;;
10041;SDS011;5061;49.068;12.058;2022-11-23T15:54:23;19.20;;;12.40;;
10041;SDS011;5061;49.068;12.058;2022-11-23T15:57:51;26.83;;;15.47;;
10041;SDS011;5061;49.068;12.058;2022-11-23T16:01:15;16.07;;;11.10;;
10041;SDS011;5061;49.068;12.058;2022-11-23T16:04:37;18.30;;;11.80;;
10041;SDS011;5061;49.068;12.058;2022-11-23T16:08:00;18.43;;;10.80;;
10041;SDS011;5061;49.068;12.058;2022-11-23T16:11:42;22.30;;;11.97;;
10041;SDS011;5061;49.068;12.058;2022-11-23T16:18:53;17.70;;;11.33;;
10041;SDS011;5061;49.068;12.058;2022-11-23T16:25:58;17.17;;;10.97;;
10041;SDS011;5061;49.068;12.058;2022-11-23T16:29:26;16.33;;;11.70;;
10041;SDS011;5061;49.068;12.058;2022-11-23T16:32:54;20.27;;;11.67;;
10041;SDS011;5061;49.068;12.058;2022-11-23T16:36:17;16.97;;;11.40;;
10041;SDS011;5061;49.068;12.058;2022-11-23T16:39:37;16.53;;;10.73;;
10041;SDS011;5061;49.068;12.058;2022-11-23T16:42:58;19.30;;;11.77;;
10041;SDS011;5061;49.068;12.058;2022-11-23T16:46:19;18.37;;;11.53;;
10041;SDS011;5061;49.068;12.058;2022-11-23T16:49:40;18.40;;;11.17;;
10041;SDS011;5061;49.068;12.058;2022-11-23T16:53:11;19.40;;;11.53;;
10041;SDS011;5061;49.068;12.058;2022-11-23T16:56:33;16.73;;;11.33;;
10041;SDS011;5061;49.068;12.058;2022-11-23T16:59:55;19.70;;;13.60;;
10041;SDS011;5061;49.068;12.058;2022-11-23T17:03:16;21.20;;;14.40;;
10041;SDS011;5061;49.068;12.058;2022-11-23T17:06:37;27.97;;;15.60;;
10041;SDS011;5061;49.068;12.058;2022-11-23T17:10:00;26.03;;;16.03;;
10041;SDS011;5061;49.068;12.058;2022-11-23T17:13:22;27.63;;;14.90;;
10041;SDS011;5061;49.068;12.058;2022-11-23T17:16:45;23.17;;;15.00;;
10041;SDS011;5061;49.068;12.058;2022-11-23T17:20:08;22.27;;;13.77;;
10041;SDS011;5061;49.068;12.058;2022-11-23T17:23:31;23.37;;;14.00;;
10041;SDS011;5061;49.068;12.058;2022-11-23T17:26:52;27.70;;;16.47;;
10041;SDS011;5061;49.068;12.058;2022-11-23T17:30:14;24.57;;;14.07;;
10041;SDS011;5061;49.068;12.058;2022-11-23T17:33:36;26.23;;;14.70;;
10041;SDS011;5061;49.068;12.058;2022-11-23T17:36:57;19.47;;;12.43;;
10041;SDS011;5061;49.068;12.058;2022-11-23T17:40:19;27.17;;;14.90;;
10041;SDS011;5061;49.068;12.058;2022-11-23T17:43:42;21.27;;;13.00;;
10041;SDS011;5061;49.068;12.058;2022-11-23T17:47:03;21.70;;;13.70;;
10041;SDS011;5061;49.068;12.058;2022-11-23T17:50:25;24.07;;;13.87;;
10041;SDS011;5061;49.068;12.058;2022-11-23T17:53:47;24.23;;;15.03;;
10041;SDS011;5061;49.068;12.058;2022-11-23T17:57:14;24.43;;;14.50;;
10041;SDS011;5061;49.068;12.058;2022-11-23T18:00:36;22.03;;;12.63;;
10041;SDS011;5061;49.068;12.058;2022-11-23T18:03:57;26.63;;;15.27;;
10041;SDS011;5061;49.068;12.058;2022-11-23T18:07:19;26.90;;;15.73;;
10041;SDS011;5061;49.068;12.058;2022-11-23T18:10:40;25.00;;;15.23;;
10041;SDS011;5061;49.068;12.058;2022-11-23T18:14:01;27.40;;;14.17;;
10041;SDS011;5061;49.068;12.058;2022-11-23T18:17:22;24.00;;;15.27;;
10041;SDS011;5061;49.068;12.058;2022-11-23T18:20:43;26.60;;;14.77;;
10041;SDS011;5061;49.068;12.058;2022-11-23T18:24:03;26.77;;;15.47;;
10041;SDS011;5061;49.068;12.058;2022-11-23T18:27:24;33.53;;;18.63;;
10041;SDS011;5061;49.068;12.058;2022-11-23T18:30:45;28.83;;;16.10;;
10041;SDS011;5061;49.068;12.058;2022-11-23T18:34:06;28.00;;;14.93;;
10041;SDS011;5061;49.068;12.058;2022-11-23T18:37:27;27.03;;;15.40;;
10041;SDS011;5061;49.068;12.058;2022-11-23T18:40:48;29.60;;;16.13;;
10041;SDS011;5061;49.068;12.058;2022-11-23T18:44:08;35.70;;;17.43;;
10041;SDS011;5061;49.068;12.058;2022-11-23T18:47:29;29.00;;;16.73;;
10041;SDS011;5061;49.068;12.058;2022-11-23T18:50:50;27.60;;;15.70;;
10041;SDS011;5061;49.068;12.058;2022-11-23T18:54:10;21.33;;;13.67;;
10041;SDS011;5061;49.068;12.058;2022-11-23T18:57:31;28.10;;;14.20;;
10041;SDS011;5061;49.068;12.058;2022-11-23T19:00:51;24.93;;;14.43;;
10041;SDS011;5061;49.068;12.058;2022-11-23T19:04:12;35.67;;;16.97;;
10041;SDS011;5061;49.068;12.058;2022-11-23T19:07:32;38.00;;;18.87;;
10041;SDS011;5061;49.068;12.058;2022-11-23T19:10:53;34.03;;;18.37;;
10041;SDS011;5061;49.068;12.058;2022-11-23T19:14:14;25.43;;;15.20;;
10041;SDS011;5061;49.068;12.058;2022-11-23T19:17:34;28.47;;;14.23;;
10041;SDS011;5061;49.068;12.058;2022-11-23T19:20:55;22.53;;;12.27;;
10041;SDS011;5061;49.068;12.058;2022-11-23T19:24:16;22.90;;;13.23;;
10041;SDS011;5061;49.068;12.058;2022-11-23T19:27:37;24.30;;;15.13;;
10041;SDS011;5061;49.068;12.058;2022-11-23T19:30:57;20.27;;;12.17;;
10041;SDS011;5061;49.068;12.058;2022-11-23T19:34:36;21.50;;;11.50;;
10041;SDS011;5061;49.068;12.058;2022-11-23T19:37:57;19.23;;;11.33;;
10041;SDS011;5061;49.068;12.058;2022-11-23T19:41:17;20.37;;;11.83;;
10041;SDS011;5061;49.068;12.058;2022-11-23T19:44:38;22.17;;;12.03;;
10041;SDS011;5061;49.068;12.058;2022-11-23T19:47:59;25.90;;;13.13;;
10041;SDS011;5061;49.068;12.058;2022-11-23T19:51:20;23.90;;;12.80;;
10041;SDS011;5061;49.068;12.058;2022-11-23T19:54:42;29.90;;;15.17;;
10041;SDS011;5061;49.068;12.058;2022-11-23T19:58:03;26.43;;;14.40;;
10041;SDS011;5061;49.068;12.058;2022-11-23T20:01:24;28.53;;;14.83;;
10041;SDS011;5061;49.068;12.058;2022-11-23T20:04:50;28.00;;;14.80;;
10041;SDS011;5061;49.068;12.058;2022-11-23T20:08:11;27.97;;;14.57;;
10041;SDS011;5061;49.068;12.058;2022-11-23T20:11:32;23.93;;;14.37;;
10041;SDS011;5061;49.068;12.058;2022-11-23T20:14:53;21.50;;;12.93;;
10041;SDS011;5061;49.068;12.058;2022-11-23T20:18:14;18.03;;;12.10;;
10041;SDS011;5061;49.068;12.058;2022-11-23T20:21:35;22.43;;;12.07;;
10041;SDS011;5061;49.068;12.058;2022-11-23T20:24:56;22.03;;;12.90;;
10041;SDS011;5061;49.068;12.058;2022-11-23T20:28:18;24.13;;;13.03;;
10041;SDS011;5061;49.068;12.058;2022-11-23T20:31:39;25.53;;;12.10;;
10041;SDS011;5061;49.068;12.058;2022-11-23T20:35:00;21.10;;;12.93;;
10041;SDS011;5061;49.068;12.058;2022-11-23T20:38:21;20.30;;;12.90;;
10041;SDS011;5061;49.068;12.058;2022-11-23T20:41:41;22.13;;;11.20;;
10041;SDS011;5061;49.068;12.058;2022-11-23T20:45:02;19.13;;;10.57;;
10041;SDS011;5061;49.068;12.058;2022-11-23T20:48:25;22.90;;;12.90;;
10041;SDS011;5061;49.068;12.058;2022-11-23T20:51:45;21.27;;;12.93;;
10041;SDS011;5061;49.068;12.058;2022-11-23T20:55:09;19.03;;;11.97;;
10041;SDS011;5061;49.068;12.058;2022-11-23T20:58:31;20.23;;;11.70;;
10041;SDS011;5061;49.068;12.058;2022-11-23T21:01:53;23.80;;;12.43;;
10041;SDS011;5061;49.068;12.058;2022-11-23T21:05:14;23.63;;;13.13;;
10041;SDS011;5061;49.068;12.058;2022-11-23T21:08:41;20.50;;;11.90;;
10041;SDS011;5061;49.068;12.058;2022-11-23T21:12:05;25.43;;;14.07;;
10041;SDS011;5061;49.068;12.058;2022-11-23T21:15:44;24.03;;;13.10;;
10041;SDS011;5061;49.068;12.058;2022-11-23T21:19:06;23.13;;;13.80;;
10041;SDS011;5061;49.068;12.058;2022-11-23T21:22:30;22.27;;;13.83;;
10041;SDS011;5061;49.068;12.058;2022-11-23T21:25:51;19.53;;;12.30;;
10041;SDS011;5061;49.068;12.058;2022-11-23T21:29:11;22.00;;;12.70;;
10041;SDS011;5061;49.068;12.058;2022-11-23T21:32:32;18.87;;;11.70;;
10041;SDS011;5061;49.068;12.058;2022-11-23T21:35:53;18.50;;;11.33;;
10041;SDS011;5061;49.068;12.058;2022-11-23T21:39:16;22.60;;;13.40;;
10041;SDS011;5061;49.068;12.058;2022-11-23T21:42:37;33.70;;;16.23;;
10041;SDS011;5061;49.068;12.058;2022-11-23T21:45:59;20.03;;;12.67;;
10041;SDS011;5061;49.068;12.058;2022-11-23T21:49:20;23.97;;;14.27;;
10041;SDS011;5061;49.068;12.058;2022-11-23T21:52:41;25.30;;;14.30;;
10041;SDS011;5061;49.068;12.058;2022-11-23T21:56:05;24.20;;;15.33;;
10041;SDS011;5061;49.068;12.058;2022-11-23T21:59:28;16.40;;;11.70;;
10041;SDS011;5061;49.068;12.058;2022-11-23T22:02:49;23.40;;;13.67;;
10041;SDS011;5061;49.068;12.058;2022-11-23T22:06:10;26.37;;;14.70;;
10041;SDS011;5061;49.068;12.058;2022-11-23T22:09:34;23.47;;;13.97;;
10041;SDS011;5061;49.068;12.058;2022-11-23T22:12:54;21.43;;;14.03;;
10041;SDS011;5061;49.068;12.058;2022-11-23T22:16:19;22.13;;;14.33;;
10041;SDS011;5061;49.068;12.058;2022-11-23T22:19:41;24.67;;;14.07;;